Time;durP1;ratioP1;P1;durP2;ratioP2;P2;SDS_P1;SDS_P2;PMS_P1;PMS_P2;Temp;Humidity;BMP_temperature;BMP_pressure;BME280_temperature;BME280_humidity;BME280_pressure;Samples;Min_cycle;Max_cycle;Signal;HPM_P1;HPM_P2
2021/08/10 00:00:09;;;;;;;2.67;2.03;;;;;;;16.73;74.10;100886.53;5018967;28;20199;-68
2021/08/10 00:02:40;;;;;;;4.17;2.03;;;;;;;16.83;72.88;100911.81;5023394;28;20241;-68
2021/08/10 00:05:10;;;;;;;2.53;2.03;;;;;;;16.57;72.43;100868.06;5021102;28;20218;-69
2021/08/10 00:07:38;;;;;;;3.50;1.97;;;;;;;16.51;72.41;100856.91;5025445;28;20620;-68
2021/08/10 00:10:08;;;;;;;2.40;1.87;;;;;;;16.85;72.43;100915.28;5024159;28;20222;-69
2021/08/10 00:12:36;;;;;;;1.93;1.67;;;;;;;16.87;72.05;100918.69;5026183;28;20217;-68
2021/08/10 00:15:06;;;;;;;1.90;1.77;;;;;;;16.81;72.57;100911.09;5023904;28;20195;-68
2021/08/10 00:17:34;;;;;;;4.17;2.20;;;;;;;16.77;73.91;100901.53;5022932;28;20199;-68
2021/08/10 00:20:02;;;;;;;2.07;1.70;;;;;;;16.70;73.84;100909.38;5024629;28;20205;-68
2021/08/10 00:22:32;;;;;;;7.37;2.03;;;;;;;16.77;73.15;100907.81;5023115;28;20206;-67
2021/08/10 00:25:00;;;;;;;4.70;2.00;;;;;;;16.71;73.61;100916.50;5025617;28;20258;-68
2021/08/10 00:27:28;;;;;;;2.70;2.00;;;;;;;16.70;74.18;100911.22;5026645;28;20194;-68
2021/08/10 00:29:57;;;;;;;2.10;1.90;;;;;;;16.74;74.30;100899.97;5026775;28;20284;-69
2021/08/10 00:32:25;;;;;;;1.90;1.80;;;;;;;16.79;74.37;100915.81;5025511;28;20203;-68
2021/08/10 00:34:54;;;;;;;4.43;2.03;;;;;;;16.84;74.61;100907.28;5028153;28;20216;-68
2021/08/10 00:37:22;;;;;;;2.20;2.00;;;;;;;16.86;74.42;100914.28;5023722;28;20203;-68
2021/08/10 00:39:54;;;;;;;2.63;2.10;;;;;;;16.94;74.51;100914.41;5027539;28;20576;-69
2021/08/10 00:42:22;;;;;;;3.30;2.20;;;;;;;16.98;74.26;100915.00;5021855;28;20286;-68
2021/08/10 00:44:50;;;;;;;2.20;2.00;;;;;;;17.02;73.95;100906.41;5028556;28;20260;-68
2021/08/10 00:47:19;;;;;;;4.00;2.20;;;;;;;17.11;73.83;100910.13;5029196;28;20209;-69
2021/08/10 00:49:47;;;;;;;3.03;2.40;;;;;;;17.20;72.79;100919.31;5027184;28;20205;-68
2021/08/10 00:52:17;;;;;;;5.07;2.50;;;;;;;16.79;74.46;100866.97;5027541;28;20660;-68
2021/08/10 00:54:45;;;;;;;2.37;2.17;;;;;;;16.96;72.61;100871.72;5028440;28;20305;-69
2021/08/10 00:57:16;;;;;;;4.17;2.33;;;;;;;17.28;73.25;100924.88;5044205;28;20203;-68
2021/08/10 00:59:44;;;;;;;2.43;2.20;;;;;;;17.32;73.07;100927.16;5027223;28;20236;-68
2021/08/10 01:02:13;;;;;;;2.10;2.00;;;;;;;17.22;74.12;100917.31;5038487;28;20206;-68
2021/08/10 01:04:43;;;;;;;3.10;2.00;;;;;;;17.27;74.41;100920.44;5032456;28;20269;-69
2021/08/10 01:07:17;;;;;;;5.30;2.43;;;;;;;17.23;74.76;100930.72;5033310;28;20639;-69
2021/08/10 01:09:58;;;;;;;3.60;2.17;;;;;;;17.05;73.55;100881.72;5030485;28;20546;-68
2021/08/10 01:12:34;;;;;;;3.03;2.10;;;;;;;17.34;72.08;100925.16;5029737;28;20209;-68
2021/08/10 01:15:11;;;;;;;4.90;2.37;;;;;;;17.14;73.18;100898.13;5043807;28;20207;-68
2021/08/10 01:17:45;;;;;;;2.50;2.10;;;;;;;17.29;74.83;100918.44;5040276;28;20237;-68
2021/08/10 01:20:39;;;;;;;4.20;2.30;;;;;;;17.37;75.23;100932.16;5031168;28;20206;-69
2021/08/10 01:23:13;;;;;;;3.23;2.40;;;;;;;17.47;72.72;100930.31;5030287;28;20219;-68
2021/08/10 01:25:56;;;;;;;801.40;575.17;;;;;;;17.39;75.42;100935.56;5031722;28;20215;-68
2021/08/10 01:28:51;;;;;;;850.80;628.90;;;;;;;17.46;74.67;100938.59;5031525;28;20442;-68
2021/08/10 01:31:27;;;;;;;848.93;629.60;;;;;;;17.44;75.36;100941.44;5030265;28;20480;-69
2021/08/10 01:34:04;;;;;;;778.37;526.97;;;;;;;17.43;74.12;100931.56;5046946;28;20772;-68
2021/08/10 01:36:36;;;;;;;743.63;469.93;;;;;;;17.51;73.65;100944.44;5029935;28;20461;-68
2021/08/10 01:39:06;;;;;;;806.37;575.33;;;;;;;17.46;74.39;100942.19;5030358;28;20438;-69
2021/08/10 01:41:43;;;;;;;788.57;556.20;;;;;;;17.52;74.01;100947.03;5029945;28;20869;-69
2021/08/10 01:44:12;;;;;;;789.23;551.07;;;;;;;17.59;73.40;100956.31;5030990;28;20488;-68
2021/08/10 01:46:43;;;;;;;811.10;587.93;;;;;;;17.51;75.97;100948.03;5029673;28;20823;-68
2021/08/10 01:49:12;;;;;;;793.37;553.10;;;;;;;17.53;76.13;100945.16;5045759;28;20482;-68
2021/08/10 01:51:42;;;;;;;788.10;551.57;;;;;;;17.60;73.54;100949.88;5011415;28;20539;-68
2021/08/10 01:54:13;;;;;;;795.40;584.80;;;;;;;17.52;73.98;100930.72;5024328;28;20443;-68
2021/08/10 01:56:42;;;;;;;788.13;559.63;;;;;;;17.39;74.77;100913.84;5042959;28;20445;-68
2021/08/10 01:59:14;;;;;;;785.40;556.67;;;;;;;17.56;75.77;100948.44;5017982;28;20427;-68
2021/08/10 02:01:45;;;;;;;793.57;569.80;;;;;;;17.56;75.37;100948.44;5029565;28;20442;-68
2021/08/10 02:04:19;;;;;;;824.23;611.73;;;;;;;17.27;75.65;100905.00;5027757;28;20461;-68
2021/08/10 02:06:52;;;;;;;798.00;569.60;;;;;;;17.58;76.30;100957.31;5042015;28;20985;-68
2021/08/10 02:09:22;;;;;;;796.60;564.80;;;;;;;17.56;74.91;100964.75;5037156;28;20451;-68
2021/08/10 02:11:53;;;;;;;782.87;550.43;;;;;;;17.56;75.77;100959.31;5026927;28;20466;-68
2021/08/10 02:14:25;;;;;;;850.57;622.13;;;;;;;17.63;74.57;100959.59;5028622;28;20440;-68
2021/08/10 02:17:03;;;;;;;834.83;599.60;;;;;;;17.64;74.90;100954.00;5032826;28;20456;-68
2021/08/10 02:19:37;;;;;;;763.10;490.63;;;;;;;17.68;74.68;100966.31;5032140;28;20434;-68
2021/08/10 02:22:07;;;;;;;857.70;620.70;;;;;;;17.67;74.92;100952.88;5017032;28;20822;-69
2021/08/10 02:24:44;;;;;;;846.27;604.27;;;;;;;17.70;73.27;100958.03;5025894;28;20565;-69
2021/08/10 02:27:18;;;;;;;818.33;571.47;;;;;;;17.72;73.65;100966.03;5037905;28;20446;-69
2021/08/10 02:29:50;;;;;;;835.70;611.07;;;;;;;17.78;73.37;100958.19;5029017;28;21154;-68
2021/08/10 02:32:27;;;;;;;820.73;594.37;;;;;;;17.74;73.35;100947.72;5029249;28;20461;-69
2021/08/10 02:34:59;;;;;;;799.43;558.13;;;;;;;17.78;74.23;100954.63;5029414;28;20449;-69
2021/08/10 02:37:29;;;;;;;827.53;575.97;;;;;;;17.72;74.07;100949.72;5029406;28;20457;-68
2021/08/10 02:40:02;;;;;;;775.23;522.57;;;;;;;17.71;73.53;100945.31;5028986;28;20534;-68
2021/08/10 02:42:32;;;;;;;810.67;556.43;;;;;;;17.69;73.94;100938.16;5028641;28;20485;-68
2021/08/10 02:45:02;;;;;;;798.10;553.33;;;;;;;17.74;74.47;100951.31;5028927;28;20476;-68
2021/08/10 02:47:32;;;;;;;846.20;606.63;;;;;;;17.68;74.98;100943.75;5028801;28;20957;-68
2021/08/10 02:50:01;;;;;;;798.20;540.87;;;;;;;17.65;75.98;100947.56;5028943;28;20460;-68
2021/08/10 02:52:29;;;;;;;796.97;538.63;;;;;;;17.63;75.29;100944.16;5029058;28;20438;-68
2021/08/10 02:54:57;;;;;;;741.80;461.67;;;;;;;17.58;75.67;100946.44;5028967;28;20434;-68
2021/08/10 02:57:30;;;;;;;730.20;435.03;;;;;;;17.54;75.80;100939.59;5022523;28;20473;-68
2021/08/10 03:00:04;;;;;;;702.10;402.57;;;;;;;17.58;75.97;100953.72;5037597;28;20295;-68
2021/08/10 03:02:40;;;;;;;767.07;538.13;;;;;;;17.54;76.12;100938.72;5028402;28;20240;-69
2021/08/10 03:05:13;;;;;;;863.70;668.97;;;;;;;17.43;76.36;100925.28;5028438;28;20258;-68
2021/08/10 03:07:52;;;;;;;851.80;682.70;;;;;;;17.66;74.97;100953.84;5044917;28;21039;-68
2021/08/10 03:10:21;;;;;;;825.70;635.30;;;;;;;17.68;74.38;100947.31;5032258;28;20934;-69
2021/08/10 03:12:51;;;;;;;821.90;644.90;;;;;;;17.65;75.57;100949.44;5028272;28;20453;-68
2021/08/10 03:15:24;;;;;;;832.50;631.10;;;;;;;17.65;76.28;100952.16;5028314;28;20486;-69
2021/08/10 03:17:59;;;;;;;874.53;704.10;;;;;;;17.68;75.54;100950.03;5028030;28;21204;-68
2021/08/10 03:20:31;;;;;;;891.90;725.03;;;;;;;17.58;76.00;100951.88;5029745;28;20542;-69
2021/08/10 03:23:01;;;;;;;888.40;717.17;;;;;;;17.62;75.63;100953.28;5029213;28;20467;-69
2021/08/10 03:25:31;;;;;;;883.37;682.30;;;;;;;17.72;75.29;100955.16;5043363;28;20957;-69
2021/08/10 03:28:01;;;;;;;903.57;714.30;;;;;;;17.76;74.27;100954.75;5016775;28;20522;-68
2021/08/10 03:30:31;;;;;;;907.53;728.83;;;;;;;17.64;74.45;100928.69;5027510;28;20493;-69
2021/08/10 03:33:01;;;;;;;886.67;715.40;;;;;;;17.73;75.08;100949.59;5029227;28;20440;-68
2021/08/10 03:35:30;;;;;;;915.87;744.47;;;;;;;17.78;74.32;100954.63;5027787;28;20535;-68
2021/08/10 03:37:59;;;;;;;914.57;751.17;;;;;;;17.77;74.81;100950.19;5027968;28;20458;-68
2021/08/10 03:40:28;;;;;;;932.83;746.03;;;;;;;17.85;73.74;100947.59;5028494;28;20453;-69
2021/08/10 03:42:56;;;;;;;925.67;737.93;;;;;;;17.69;74.33;100932.72;5027381;28;20443;-68
2021/08/10 03:45:29;;;;;;;889.23;684.47;;;;;;;17.58;74.76;100908.41;5044671;28;21005;-68
2021/08/10 03:48:00;;;;;;;908.10;714.10;;;;;;;17.82;74.51;100950.59;5044601;28;20437;-69
2021/08/10 03:50:32;;;;;;;908.17;728.63;;;;;;;17.88;73.71;100950.00;5027924;28;20545;-68
2021/08/10 03:53:00;;;;;;;911.57;743.77;;;;;;;17.49;74.12;100884.00;5024463;28;20449;-69
2021/08/10 03:55:31;;;;;;;876.00;666.00;;;;;;;17.91;74.23;100952.44;5031143;28;20459;-69
2021/08/10 03:58:00;;;;;;;904.47;683.77;;;;;;;17.88;75.47;100950.88;5013346;28;20440;-68
2021/08/10 04:00:35;;;;;;;948.33;751.90;;;;;;;17.78;74.34;100930.16;5027178;28;20533;-69
2021/08/10 04:03:10;;;;;;;964.53;758.17;;;;;;;17.91;75.76;100961.44;5027845;28;20484;-68
2021/08/10 04:05:44;;;;;;;970.07;768.87;;;;;;;17.90;75.44;100958.88;5027359;28;20477;-68
2021/08/10 04:08:16;;;;;;;887.30;666.50;;;;;;;17.92;75.75;100963.16;5027688;28;20480;-69
2021/08/10 04:10:46;;;;;;;898.10;686.93;;;;;;;17.76;74.23;100930.31;5027521;28;20476;-69
2021/08/10 04:13:20;;;;;;;814.47;566.53;;;;;;;18.00;74.47;100970.56;5027738;28;20507;-68
2021/08/10 04:15:52;;;;;;;931.27;729.70;;;;;;;18.02;73.50;100960.41;5043880;28;20976;-69
2021/08/10 04:18:24;;;;;;;929.37;723.03;;;;;;;18.07;72.73;100960.00;5044159;28;20434;-69
2021/08/10 04:20:53;;;;;;;948.90;742.87;;;;;;;18.05;74.84;100970.13;5027418;28;20537;-69
2021/08/10 04:23:22;;;;;;;924.50;714.40;;;;;;;18.05;74.67;100961.97;5027679;28;20446;-69
2021/08/10 04:25:51;;;;;;;950.87;747.60;;;;;;;18.09;74.06;100972.44;5027321;28;21118;-69
2021/08/10 04:28:19;;;;;;;947.57;744.10;;;;;;;18.03;76.31;100972.13;5044051;28;20969;-69
2021/08/10 04:30:48;;;;;;;951.93;743.00;;;;;;;17.96;76.36;100970.00;5026911;28;20481;-69
2021/08/10 04:33:17;;;;;;;916.37;698.77;;;;;;;18.04;75.45;100968.41;5044174;28;20980;-69
2021/08/10 04:35:47;;;;;;;952.37;738.93;;;;;;;18.03;74.59;100973.00;5031266;28;20818;-69
2021/08/10 04:38:17;;;;;;;924.60;713.73;;;;;;;18.06;74.45;100978.16;5036150;28;20765;-68
2021/08/10 04:40:46;;;;;;;920.80;695.93;;;;;;;18.01;75.87;100975.00;5018672;28;20431;-69
2021/08/10 04:43:21;;;;;;;1002.43;839.10;;;;;;;18.06;75.11;100971.84;5031232;28;20793;-68
2021/08/10 04:45:50;;;;;;;992.23;830.53;;;;;;;18.04;75.63;100972.00;5047672;28;20535;-69
2021/08/10 04:48:21;;;;;;;988.20;836.33;;;;;;;17.97;74.77;100951.84;5031129;28;20449;-69
2021/08/10 04:50:50;;;;;;;995.57;826.17;;;;;;;18.16;74.33;100975.41;5047492;28;20447;-68
2021/08/10 04:53:20;;;;;;;975.73;810.67;;;;;;;18.20;74.00;100971.38;5031164;28;20457;-68
2021/08/10 04:55:49;;;;;;;981.43;810.63;;;;;;;18.21;74.58;100973.09;5030569;28;20519;-68
2021/08/10 04:58:18;;;;;;;980.27;828.80;;;;;;;18.24;73.51;100975.53;5032989;28;20824;-68
2021/08/10 05:00:48;;;;;;;1008.57;850.47;;;;;;;18.24;74.75;100981.81;5043622;28;20540;-68
2021/08/10 05:03:16;;;;;;;991.93;847.83;;;;;;;18.26;74.19;100974.38;5031155;28;20454;-68
2021/08/10 05:05:45;;;;;;;964.33;795.63;;;;;;;18.33;74.73;100977.34;5030944;28;20442;-69
2021/08/10 05:08:14;;;;;;;955.40;769.10;;;;;;;18.24;75.52;100975.53;5032362;28;20437;-68
2021/08/10 05:10:43;;;;;;;945.77;747.70;;;;;;;18.29;74.84;100973.22;5017895;28;20438;-68
2021/08/10 05:13:15;;;;;;;948.47;779.83;;;;;;;18.33;75.26;100979.22;5030795;28;20459;-68
2021/08/10 05:15:43;;;;;;;956.63;788.07;;;;;;;18.31;76.07;100972.06;5030486;28;20447;-68
2021/08/10 05:18:11;;;;;;;979.70;791.77;;;;;;;18.43;75.50;100977.34;5031918;28;21189;-69
2021/08/10 05:20:42;;;;;;;990.63;828.30;;;;;;;18.36;75.27;100955.28;5030295;28;20458;-69
2021/08/10 05:23:10;;;;;;;989.17;813.27;;;;;;;18.55;74.50;100979.69;5040633;28;20470;-68
2021/08/10 05:25:40;;;;;;;994.23;814.67;;;;;;;18.64;73.64;100977.97;5030235;28;20450;-68
2021/08/10 05:28:10;;;;;;;966.40;788.17;;;;;;;18.60;73.91;100973.81;5046998;28;20442;-68
2021/08/10 05:30:39;;;;;;;957.90;763.67;;;;;;;18.68;73.85;100978.56;5046637;28;20834;-69
2021/08/10 05:33:09;;;;;;;986.10;801.33;;;;;;;18.79;73.25;100978.34;5047037;28;20453;-69
2021/08/10 05:35:38;;;;;;;1014.67;843.00;;;;;;;18.93;70.81;100978.69;5031447;28;20453;-69
2021/08/10 05:38:07;;;;;;;991.03;821.33;;;;;;;19.06;71.54;100978.34;5029714;28;20439;-68
2021/08/10 05:40:42;;;;;;;990.87;812.13;;;;;;;19.17;71.00;100982.69;5029744;28;20488;-68
2021/08/10 05:43:10;;;;;;;962.93;775.53;;;;;;;19.18;72.98;100987.13;5016231;28;20547;-68
2021/08/10 05:45:38;;;;;;;988.30;799.43;;;;;;;19.27;72.38;100988.91;5031574;28;20440;-68
2021/08/10 05:48:10;;;;;;;991.50;816.03;;;;;;;19.32;71.89;100986.63;5029634;28;20477;-68
2021/08/10 05:50:39;;;;;;;985.30;790.77;;;;;;;19.37;70.86;100967.09;5037689;28;20457;-69
2021/08/10 05:53:07;;;;;;;989.00;803.90;;;;;;;19.51;68.85;100981.00;5029761;28;20938;-68
2021/08/10 05:55:35;;;;;;;973.93;775.63;;;;;;;19.53;70.90;100987.19;5031053;28;20438;-68
2021/08/10 05:58:05;;;;;;;989.20;796.10;;;;;;;19.58;70.22;100989.44;5029758;28;20457;-69
2021/08/10 06:00:33;;;;;;;995.27;808.37;;;;;;;19.52;71.20;100990.88;5030444;28;20446;-68
2021/08/10 06:03:09;;;;;;;986.63;798.27;;;;;;;19.62;71.85;100990.84;5029915;28;20557;-69
2021/08/10 06:05:39;;;;;;;989.93;792.63;;;;;;;19.73;70.39;100992.47;5029868;28;20516;-67
2021/08/10 06:08:08;;;;;;;976.77;777.73;;;;;;;19.81;70.05;100998.00;5030051;28;20710;-68
2021/08/10 06:10:43;;;;;;;1000.73;813.03;;;;;;;19.74;70.19;100995.03;5045934;28;20445;-68
2021/08/10 06:13:12;;;;;;;1000.20;809.57;;;;;;;19.69;70.53;101001.97;5029509;28;21038;-69
2021/08/10 06:15:43;;;;;;;987.23;789.33;;;;;;;19.74;70.91;100996.91;5045809;28;20441;-68
2021/08/10 06:18:12;;;;;;;1016.40;833.07;;;;;;;19.71;70.82;101002.69;5028953;28;20980;-69
2021/08/10 06:20:40;;;;;;;973.40;764.07;;;;;;;19.77;69.61;101004.78;5029302;28;21033;-69
2021/08/10 06:23:10;;;;;;;983.03;788.57;;;;;;;19.63;70.24;100968.03;5029566;28;20446;-69
2021/08/10 06:25:44;;;;;;;999.67;816.97;;;;;;;19.85;70.76;100993.94;5028831;28;20738;-68
2021/08/10 06:28:17;;;;;;;987.30;796.57;;;;;;;19.86;70.74;100998.38;5045944;28;20477;-68
2021/08/10 06:30:46;;;;;;;940.57;713.97;;;;;;;19.83;71.91;100994.09;5026671;28;20519;-68
2021/08/10 06:33:15;;;;;;;928.30;718.53;;;;;;;19.85;71.05;100985.75;5029194;28;20625;-68
2021/08/10 06:35:44;;;;;;;962.27;750.93;;;;;;;20.03;70.52;101004.81;5028852;28;20877;-68
2021/08/10 06:38:13;;;;;;;952.83;753.33;;;;;;;20.02;70.76;101005.84;5041667;28;21049;-68
2021/08/10 06:40:42;;;;;;;992.10;806.57;;;;;;;20.04;70.53;100996.47;5029175;28;20449;-68
2021/08/10 06:43:10;;;;;;;1004.03;817.37;;;;;;;19.97;71.22;101009.03;5028774;28;20462;-68
2021/08/10 06:45:42;;;;;;;995.47;818.57;;;;;;;19.83;71.10;100977.72;5038172;28;20538;-68
2021/08/10 06:48:13;;;;;;;988.47;803.57;;;;;;;20.03;70.04;101004.81;5028940;28;20469;-68
2021/08/10 06:50:42;;;;;;;973.97;785.60;;;;;;;20.04;70.62;101004.66;5028732;28;20476;-68
2021/08/10 06:53:10;;;;;;;986.80;804.87;;;;;;;19.83;68.96;100955.06;5030014;28;20943;-68
2021/08/10 06:55:46;;;;;;;1007.43;819.50;;;;;;;20.13;69.35;101006.41;5036523;28;20438;-68
2021/08/10 06:58:16;;;;;;;999.07;822.03;;;;;;;20.07;69.43;100998.88;5028172;28;20629;-67
2021/08/10 07:00:46;;;;;;;1010.27;823.00;;;;;;;20.02;70.51;100993.06;5029951;28;20430;-68
2021/08/10 07:03:16;;;;;;;1007.13;834.83;;;;;;;20.11;70.46;101002.16;5028483;28;20470;-68
2021/08/10 07:05:44;;;;;;;1027.70;847.07;;;;;;;20.17;70.45;100991.44;5014848;28;20866;-68
2021/08/10 07:08:12;;;;;;;1033.77;855.97;;;;;;;20.34;69.58;100995.16;5030019;28;20584;-68
2021/08/10 07:10:42;;;;;;;1030.50;851.83;;;;;;;20.57;67.65;100990.03;5028433;28;20234;-69
2021/08/10 07:13:11;;;;;;;1014.10;827.27;;;;;;;20.84;68.60;100990.84;5028835;28;20808;-69
2021/08/10 07:15:39;;;;;;;1010.37;829.60;;;;;;;21.22;67.03;100981.22;5028195;28;20452;-69
2021/08/10 07:18:16;;;;;;;1004.50;819.67;;;;;;;21.57;64.96;100986.44;5025235;28;20280;-69
2021/08/10 07:20:45;;;;;;;1002.97;821.27;;;;;;;21.94;62.75;100983.19;5023433;28;20232;-69
2021/08/10 07:23:13;;;;;;;967.07;784.40;;;;;;;22.26;63.08;100976.00;5043042;28;21598;-68
2021/08/10 07:25:48;;;;;;;965.07;772.43;;;;;;;22.57;62.90;100967.88;5038428;28;20209;-69
2021/08/10 07:28:23;;;;;;;964.60;776.73;;;;;;;22.83;62.29;100975.84;5042385;28;20629;-67
2021/08/10 07:30:53;;;;;;;942.20;752.30;;;;;;;23.06;61.11;100974.03;5027009;28;20250;-68
2021/08/10 07:33:24;;;;;;;961.73;776.50;;;;;;;23.11;61.43;100949.69;5024903;28;20206;-69
2021/08/10 07:35:52;;;;;;;932.17;754.60;;;;;;;23.57;61.58;100977.16;5038288;28;20199;-69
2021/08/10 07:38:24;;;;;;;924.90;756.07;;;;;;;23.76;60.91;100971.19;5029713;28;20202;-69
2021/08/10 07:40:53;;;;;;;918.60;740.13;;;;;;;23.82;58.87;100969.59;5025637;28;20324;-69
2021/08/10 07:43:22;;;;;;;920.93;736.00;;;;;;;24.14;58.87;100976.66;5039724;28;20203;-68
2021/08/10 07:45:50;;;;;;;908.23;731.77;;;;;;;24.39;57.35;100978.16;5027550;28;20202;-69
2021/08/10 07:48:19;;;;;;;899.60;721.27;;;;;;;24.46;58.12;100975.50;5025013;28;20582;-66
2021/08/10 07:50:52;;;;;;;906.47;727.93;;;;;;;24.43;56.52;100984.97;5026597;28;20624;-67
2021/08/10 07:53:24;;;;;;;891.90;704.90;;;;;;;24.88;55.05;100979.47;5026742;28;20832;-67
2021/08/10 07:55:52;;;;;;;891.13;708.07;;;;;;;25.19;54.64;100982.00;5025600;28;20194;-67
2021/08/10 07:58:21;;;;;;;902.70;736.27;;;;;;;25.34;53.29;100983.66;5038965;28;20815;-68
2021/08/10 08:00:50;;;;;;;907.73;737.07;;;;;;;25.73;52.05;100993.44;5025327;28;20209;-69
2021/08/10 08:03:18;;;;;;;884.17;726.80;;;;;;;26.13;50.53;100986.38;5025079;28;20195;-67
2021/08/10 08:05:47;;;;;;;890.77;736.53;;;;;;;26.17;50.63;100995.94;5023999;28;20223;-67
2021/08/10 08:08:17;;;;;;;889.33;738.17;;;;;;;25.87;50.87;100989.75;5024582;28;20215;-69
2021/08/10 08:10:46;;;;;;;893.80;733.83;;;;;;;25.38;51.67;100962.97;5030323;28;20210;-67
2021/08/10 08:13:25;;;;;;;888.30;730.27;;;;;;;25.37;51.00;100977.75;5026002;28;20246;-67
2021/08/10 08:15:54;;;;;;;893.17;744.20;;;;;;;25.15;53.81;100988.94;5030319;28;20684;-67
2021/08/10 08:18:25;;;;;;;884.10;730.90;;;;;;;24.96;53.37;100985.72;5032689;28;20194;-67
2021/08/10 08:20:54;;;;;;;884.50;728.30;;;;;;;25.05;53.11;100979.09;5028901;28;20202;-68
2021/08/10 08:23:29;;;;;;;905.57;754.63;;;;;;;24.86;53.67;100998.91;5042283;28;20199;-67
2021/08/10 08:26:01;;;;;;;873.73;705.37;;;;;;;24.92;53.59;100992.63;5043642;28;20195;-67
2021/08/10 08:28:31;;;;;;;882.73;719.43;;;;;;;24.51;54.02;100991.44;5045805;28;20226;-67
2021/08/10 08:31:01;;;;;;;886.07;722.37;;;;;;;24.53;54.06;100997.59;5027609;28;20707;-68
2021/08/10 08:33:31;;;;;;;881.00;711.70;;;;;;;24.41;54.73;100976.06;5031543;28;20203;-68
2021/08/10 08:36:00;;;;;;;870.20;697.73;;;;;;;24.02;55.64;100998.22;5027707;28;20639;-68
2021/08/10 08:38:31;;;;;;;878.20;707.30;;;;;;;24.01;55.26;100992.94;5031851;28;20208;-68
2021/08/10 08:41:05;;;;;;;861.07;683.97;;;;;;;24.11;55.13;101004.47;5025835;28;20195;-67
2021/08/10 08:43:33;;;;;;;884.30;713.73;;;;;;;23.74;56.55;101011.66;5044429;28;20213;-67
2021/08/10 08:46:01;;;;;;;916.10;761.03;;;;;;;23.75;56.50;100996.91;5040366;28;20229;-67
2021/08/10 08:48:35;;;;;;;911.13;752.83;;;;;;;23.93;55.74;100993.84;5029375;28;20259;-67
2021/08/10 08:51:10;;;;;;;917.97;766.53;;;;;;;24.05;55.43;100997.00;5028023;28;20554;-68
2021/08/10 08:53:51;;;;;;;903.93;751.03;;;;;;;24.08;55.31;100988.38;5029547;28;20209;-67
2021/08/10 08:56:24;;;;;;;894.50;739.30;;;;;;;23.95;55.52;100986.28;5023230;28;20664;-67
2021/08/10 08:58:57;;;;;;;898.90;747.37;;;;;;;24.10;55.07;100989.06;5029613;28;20245;-67
2021/08/10 09:01:28;;;;;;;885.10;726.23;;;;;;;23.99;56.33;100989.50;5031329;28;20199;-68
2021/08/10 09:03:57;;;;;;;904.70;750.17;;;;;;;24.12;55.44;100978.75;5029348;28;20210;-68
2021/08/10 09:06:25;;;;;;;910.93;758.93;;;;;;;24.03;55.85;100977.13;5044338;28;20199;-68
2021/08/10 09:08:56;;;;;;;901.43;752.17;;;;;;;24.08;55.29;100980.16;5026167;28;20755;-68
2021/08/10 09:11:32;;;;;;;889.40;734.13;;;;;;;24.07;55.43;100962.00;5044969;28;20290;-68
2021/08/10 09:14:03;;;;;;;892.50;744.37;;;;;;;24.49;54.80;100983.38;5023874;28;20582;-69
2021/08/10 09:16:39;;;;;;;873.60;711.17;;;;;;;24.60;54.43;100980.16;5028973;28;20203;-68
2021/08/10 09:19:10;;;;;;;866.37;703.63;;;;;;;24.54;53.27;100972.69;5044403;28;20250;-68
2021/08/10 09:21:38;;;;;;;868.77;704.43;;;;;;;24.29;55.31;100977.59;5028270;28;20730;-67
2021/08/10 09:24:15;;;;;;;871.40;717.33;;;;;;;24.12;55.43;100949.41;5024781;28;20738;-67
2021/08/10 09:26:44;;;;;;;868.23;712.17;;;;;;;24.37;53.88;100972.00;5025755;28;20219;-68
2021/08/10 09:29:19;;;;;;;879.27;725.83;;;;;;;24.50;55.19;100968.63;5028482;28;20230;-68
2021/08/10 09:31:48;;;;;;;883.10;721.43;;;;;;;24.65;54.37;100966.69;5029948;28;20231;-68
2021/08/10 09:34:24;;;;;;;867.80;708.23;;;;;;;24.91;53.70;100966.19;5044655;28;20230;-68
2021/08/10 09:36:54;;;;;;;883.27;730.47;;;;;;;25.06;52.46;100963.44;5029968;28;20630;-68
2021/08/10 09:39:32;;;;;;;880.67;724.53;;;;;;;25.13;53.20;100947.91;5023059;28;20192;-68
2021/08/10 09:42:06;;;;;;;869.73;703.93;;;;;;;25.51;52.88;100955.91;5043132;28;20683;-68
2021/08/10 09:44:40;;;;;;;896.57;749.27;;;;;;;25.77;52.13;100955.34;5028381;28;20207;-68
2021/08/10 09:47:08;;;;;;;859.70;697.77;;;;;;;25.94;51.45;100956.75;5028963;28;20340;-68
2021/08/10 09:49:44;;;;;;;876.00;729.07;;;;;;;26.06;49.29;100946.06;5027114;28;20218;-68
2021/08/10 09:52:27;;;;;;;881.30;737.47;;;;;;;26.40;49.96;100956.28;5028193;28;20210;-68
2021/08/10 09:55:10;;;;;;;886.20;740.33;;;;;;;26.76;49.31;100961.59;5041912;28;20218;-68
2021/08/10 09:57:40;;;;;;;904.10;768.87;;;;;;;26.91;47.35;100970.53;5027855;28;20205;-68
2021/08/10 10:00:11;;;;;;;902.53;764.20;;;;;;;27.21;48.91;100963.69;5027110;28;20584;-68
2021/08/10 10:02:41;;;;;;;896.80;757.80;;;;;;;27.60;47.05;100964.88;5028393;28;20571;-69
2021/08/10 10:05:10;;;;;;;869.40;717.33;;;;;;;27.83;47.18;100958.94;5040888;28;20569;-68
2021/08/10 10:07:39;;;;;;;869.63;722.23;;;;;;;27.80;45.59;100942.81;5029785;28;20199;-68
2021/08/10 10:10:10;;;;;;;865.40;717.00;;;;;;;27.96;44.47;100941.56;5028755;28;20688;-68
2021/08/10 10:12:45;;;;;;;860.10;712.23;;;;;;;27.66;45.50;100947.50;5025276;28;20198;-68
2021/08/10 10:15:13;;;;;;;866.03;719.93;;;;;;;27.79;45.93;100941.13;5026703;28;20203;-67
2021/08/10 10:17:44;;;;;;;874.87;733.27;;;;;;;27.99;45.17;100944.72;5026245;28;20218;-67
2021/08/10 10:20:13;;;;;;;884.83;745.53;;;;;;;28.38;44.26;100954.91;5026228;28;20274;-68
2021/08/10 10:22:46;;;;;;;891.07;754.67;;;;;;;28.42;44.08;100949.78;5021671;28;20745;-68
2021/08/10 10:25:16;;;;;;;916.67;791.40;;;;;;;28.22;44.28;100947.06;5027382;28;20228;-68
2021/08/10 10:27:44;;;;;;;897.27;771.17;;;;;;;27.92;44.98;100952.19;5025183;28;20668;-67
2021/08/10 10:30:14;;;;;;;909.40;782.40;;;;;;;27.45;44.96;100956.75;5027819;28;20838;-67
2021/08/10 10:32:43;;;;;;;915.17;784.80;;;;;;;27.25;45.94;100955.03;5025097;28;20279;-67
2021/08/10 10:35:12;;;;;;;912.37;779.77;;;;;;;27.00;45.73;100957.47;5028047;28;20199;-67
2021/08/10 10:37:41;;;;;;;908.97;770.43;;;;;;;26.65;46.48;100965.78;5038720;28;20207;-67
2021/08/10 10:40:11;;;;;;;914.57;783.37;;;;;;;26.20;46.92;100961.63;5026416;28;20195;-67
2021/08/10 10:42:41;;;;;;;915.57;778.90;;;;;;;25.82;46.82;100963.88;5025358;28;20413;-67
2021/08/10 10:45:33;;;;;;;916.33;781.17;;;;;;;25.31;47.04;100952.94;5027203;28;20202;-67
2021/08/10 10:48:02;;;;;;;927.57;793.07;;;;;;;24.95;48.03;100948.28;5023575;28;20199;-67
2021/08/10 10:50:31;;;;;;;925.67;789.67;;;;;;;24.75;49.05;100959.00;5027062;28;20234;-68
2021/08/10 10:53:01;;;;;;;916.20;777.57;;;;;;;24.62;48.92;100955.25;5025321;28;20204;-68
2021/08/10 10:55:38;;;;;;;911.13;769.87;;;;;;;24.57;49.52;100960.47;5026039;28;20199;-68
2021/08/10 10:58:30;;;;;;;894.03;746.87;;;;;;;24.74;50.10;100959.19;5025414;28;20199;-67
2021/08/10 11:01:30;;;;;;;913.40;751.63;;;;;;;24.63;51.86;100952.31;5023785;28;20230;-67
2021/08/10 11:04:20;;;;;;;875.43;718.53;;;;;;;24.20;54.98;100969.59;4978099;28;20240;-68
2021/08/10 11:06:49;;;;;;;913.97;759.57;;;;;;;23.81;55.67;100952.28;5011053;28;20211;-68
2021/08/10 11:09:57;;;;;;;884.30;726.40;;;;;;;23.96;55.43;100962.44;5036162;28;20211;-67
2021/08/10 11:12:42;;;;;;;877.93;710.70;;;;;;;24.11;55.20;100953.19;5024278;28;20206;-67
2021/08/10 11:15:13;;;;;;;860.80;677.53;;;;;;;24.20;55.39;100962.22;5025144;28;20221;-67